Time;durP1;ratioP1;P1;durP2;ratioP2;P2;SDS_P1;SDS_P2;PMS_P1;PMS_P2;Temp;Humidity;BMP_temperature;BMP_pressure;BME280_temperature;BME280_humidity;BME280_pressure;Samples;Min_cycle;Max_cycle;Signal;HPM_P1;HPM_P2
2023/02/17 00:00:21;;;;;;;17.00;12.82;;;;;;;14.03;63.25;101904.22;4827312;29;122596;-69
2023/02/17 00:02:48;;;;;;;17.60;12.30;;;;;;;14.02;63.32;101897.19;4815311;29;119572;-69
2023/02/17 00:05:16;;;;;;;16.08;12.48;;;;;;;14.04;63.24;101905.97;4816018;29;119027;-69
2023/02/17 00:07:43;;;;;;;17.33;12.65;;;;;;;14.05;63.37;101918.34;4810998;29;122925;-69
2023/02/17 00:10:10;;;;;;;17.98;12.27;;;;;;;14.05;63.35;101907.69;4810695;29;122219;-69
2023/02/17 00:12:37;;;;;;;17.52;12.70;;;;;;;14.06;63.23;101905.91;4815801;29;120613;-69
2023/02/17 00:15:05;;;;;;;17.33;11.68;;;;;;;14.06;63.31;101897.94;4812451;29;120047;-69
2023/02/17 00:17:32;;;;;;;14.43;11.45;;;;;;;14.06;63.17;101893.47;4807493;29;124288;-69
2023/02/17 00:19:59;;;;;;;17.67;11.93;;;;;;;14.08;63.26;101885.41;4830280;29;123168;-69
2023/02/17 00:22:27;;;;;;;16.50;11.27;;;;;;;14.08;63.23;101886.25;4808793;29;120141;-68
2023/02/17 00:24:54;;;;;;;16.05;10.90;;;;;;;14.09;63.14;101901.31;4813808;29;117809;-69
2023/02/17 00:27:21;;;;;;;14.68;10.75;;;;;;;14.10;63.17;101895.06;4815371;29;123939;-69
2023/02/17 00:29:50;;;;;;;14.90;11.30;;;;;;;14.11;63.18;101899.47;4815323;29;124827;-68
2023/02/17 00:32:17;;;;;;;14.00;10.38;;;;;;;14.12;63.19;101890.53;4825454;29;118113;-69
2023/02/17 00:34:44;;;;;;;15.32;10.82;;;;;;;14.13;63.08;101884.28;4827987;29;118202;-69
2023/02/17 00:37:13;;;;;;;12.40;10.50;;;;;;;14.14;63.17;101878.00;4813658;29;124696;-71
2023/02/17 00:39:40;;;;;;;13.50;10.65;;;;;;;14.16;63.05;101873.47;4813105;29;122859;-69
2023/02/17 00:42:07;;;;;;;11.70;9.90;;;;;;;14.17;62.98;101874.34;4812676;29;118453;-69
2023/02/17 00:44:35;;;;;;;12.85;9.43;;;;;;;14.19;62.88;101873.34;4814324;29;119696;-69
2023/02/17 00:47:02;;;;;;;13.00;10.15;;;;;;;14.20;62.80;101880.41;4816397;29;124383;-68
2023/02/17 00:49:29;;;;;;;12.30;10.02;;;;;;;14.20;62.73;101875.09;4813387;29;124319;-68
2023/02/17 00:52:03;;;;;;;14.02;10.73;;;;;;;14.21;62.89;101870.63;4814794;29;118861;-69
2023/02/17 00:54:32;;;;;;;13.45;10.48;;;;;;;14.23;62.84;101870.56;4814724;29;119264;-69
2023/02/17 00:56:59;;;;;;;18.10;11.13;;;;;;;14.24;62.79;101869.59;4806885;29;123122;-69
2023/02/17 00:59:27;;;;;;;15.90;12.27;;;;;;;14.26;62.63;101873.06;4815310;29;124293;-68
2023/02/17 01:01:54;;;;;;;17.30;13.52;;;;;;;14.27;62.66;101872.16;4827190;29;119473;-68
2023/02/17 01:04:22;;;;;;;18.70;13.82;;;;;;;14.26;62.50;101867.72;4813203;29;97361;-69
2023/02/17 01:06:50;;;;;;;17.58;13.68;;;;;;;14.29;62.57;101878.28;4808789;29;124443;-69
2023/02/17 01:09:18;;;;;;;23.38;16.13;;;;;;;14.29;62.59;101867.59;4823373;29;122993;-68
2023/02/17 01:11:48;;;;;;;21.38;15.45;;;;;;;14.29;62.46;101867.59;4828772;29;118614;-68
2023/02/17 01:14:16;;;;;;;22.40;16.38;;;;;;;14.30;62.23;101869.34;4804928;29;119150;-68
2023/02/17 01:16:46;;;;;;;22.20;15.93;;;;;;;14.31;62.48;101865.75;4822330;29;122897;-68
2023/02/17 01:19:16;;;;;;;23.27;16.30;;;;;;;14.31;62.47;101855.09;4825752;29;122935;-69
2023/02/17 01:21:47;;;;;;;24.83;17.40;;;;;;;14.30;62.46;101854.22;4827174;29;121809;-68
2023/02/17 01:24:15;;;;;;;23.30;16.95;;;;;;;14.31;62.27;101849.75;4807399;29;119308;-68
2023/02/17 01:26:42;;;;;;;23.42;16.60;;;;;;;14.32;62.53;101862.16;4809123;29;124227;-68
2023/02/17 01:29:09;;;;;;;21.95;15.68;;;;;;;14.32;62.44;101856.81;4812079;29;123044;-68
2023/02/17 01:31:38;;;;;;;20.75;15.35;;;;;;;14.32;62.35;101854.16;4827967;29;118148;-69
2023/02/17 01:34:09;;;;;;;20.60;14.13;;;;;;;14.33;62.33;101847.88;4815514;29;119404;-69
2023/02/17 01:36:37;;;;;;;21.10;14.32;;;;;;;14.34;62.37;101854.97;4807154;29;124824;-68
2023/02/17 01:39:04;;;;;;;19.58;14.32;;;;;;;14.34;62.38;101849.63;4815147;29;123747;-69
2023/02/17 01:41:31;;;;;;;16.63;12.18;;;;;;;14.35;62.39;101846.91;4811848;29;118345;-69
2023/02/17 01:44:17;;;;;;;14.95;11.23;;;;;;;14.35;62.30;101840.69;4828380;29;118350;-69
2023/02/17 01:46:50;;;;;;;14.60;11.27;;;;;;;14.35;62.17;101843.34;4809638;29;124702;-68
2023/02/17 01:49:26;;;;;;;13.02;9.85;;;;;;;14.36;62.21;101845.09;4810504;29;124146;-68
2023/02/17 01:52:09;;;;;;;11.68;9.05;;;;;;;14.35;62.12;101843.34;4815288;29;120768;-68
2023/02/17 01:54:42;;;;;;;11.32;8.45;;;;;;;14.36;62.03;101847.75;4810253;29;120702;-67
2023/02/17 01:57:14;;;;;;;10.35;8.10;;;;;;;14.38;62.04;101853.88;4814865;29;124422;-67
2023/02/17 01:59:41;;;;;;;9.73;7.88;;;;;;;14.39;61.94;101848.47;4814145;29;123834;-67
2023/02/17 02:02:09;;;;;;;9.23;7.75;;;;;;;14.40;62.05;101860.00;4810189;29;119454;-68
2023/02/17 02:04:39;;;;;;;10.27;8.20;;;;;;;14.40;61.83;101855.53;4811681;29;118196;-68
2023/02/17 02:07:12;;;;;;;9.10;7.57;;;;;;;14.39;61.63;101858.25;4812557;29;124608;-67
2023/02/17 02:09:47;;;;;;;10.10;7.97;;;;;;;14.40;61.77;101860.00;4811647;29;124216;-67
2023/02/17 02:12:18;;;;;;;9.82;7.95;;;;;;;14.39;61.88;101847.59;4816919;29;119780;-68
2023/02/17 02:14:47;;;;;;;11.40;8.52;;;;;;;14.39;61.78;101842.25;4815108;29;118805;-69
2023/02/17 02:17:30;;;;;;;10.70;7.97;;;;;;;14.39;61.62;101837.81;4815903;29;124845;-68
2023/02/17 02:20:07;;;;;;;10.45;8.40;;;;;;;14.39;61.55;101836.94;4814931;29;124142;-69
2023/02/17 02:22:39;;;;;;;11.50;8.10;;;;;;;14.39;61.56;101842.25;4827617;29;119623;-67
2023/02/17 02:25:34;;;;;;;11.57;8.32;;;;;;;14.38;61.69;101829.88;4813833;29;119230;-68
2023/02/17 02:28:19;;;;;;;10.75;8.48;;;;;;;14.37;61.48;101836.13;4828245;29;123482;-68
2023/02/17 02:30:46;;;;;;;;;;;;;;;14.35;61.42;101824.69;4812558;29;123191;-68
2023/02/17 02:33:24;;;;;;;11.80;7.85;;;;;;;14.35;61.32;101824.69;4813332;29;119717;-68
2023/02/17 02:35:55;;;;;;;11.18;8.23;;;;;;;14.34;61.34;101817.66;4825257;29;119875;-68
2023/02/17 02:38:36;;;;;;;11.77;8.35;;;;;;;14.34;61.14;101815.84;4828118;29;124295;-68
2023/02/17 02:41:10;;;;;;;11.70;8.63;;;;;;;14.33;61.28;101805.25;4827181;29;123374;-68
2023/02/17 02:43:38;;;;;;;12.67;9.00;;;;;;;14.32;61.31;101804.38;4826437;29;119616;-68
2023/02/17 02:46:05;;;;;;;14.18;9.88;;;;;;;14.32;61.19;101798.19;4812824;29;119679;-68
2023/02/17 02:48:34;;;;;;;14.80;10.73;;;;;;;14.31;61.29;101796.44;4808584;29;124256;-68
2023/02/17 02:51:15;;;;;;;17.23;11.32;;;;;;;14.30;61.04;101797.41;4823628;29;123244;-68
2023/02/17 02:54:12;;;;;;;16.33;11.73;;;;;;;14.28;60.99;101786.81;4811603;29;120371;-69
2023/02/17 02:57:03;;;;;;;15.68;11.55;;;;;;;14.28;61.21;101785.91;4803177;29;117967;-67
2023/02/17 02:59:57;;;;;;;15.82;12.00;;;;;;;14.27;61.07;101778.88;4825028;29;122559;-67
2023/02/17 03:02:33;;;;;;;16.15;11.52;;;;;;;14.26;60.98;101766.47;4818501;29;122748;-67
2023/02/17 03:05:15;;;;;;;16.98;11.80;;;;;;;14.24;60.97;101758.59;4810268;29;118703;-68
2023/02/17 03:07:52;;;;;;;18.42;12.15;;;;;;;14.24;60.89;101758.59;4826103;29;121612;-68
2023/02/17 03:10:20;;;;;;;16.30;11.32;;;;;;;14.25;60.88;101764.75;4823806;29;124694;-68
2023/02/17 03:12:47;;;;;;;17.23;11.68;;;;;;;14.23;60.85;101758.66;4810349;29;123923;-68
2023/02/17 03:15:25;;;;;;;16.90;12.68;;;;;;;14.23;60.70;101782.63;4826262;29;118571;-68
2023/02/17 03:17:55;;;;;;;20.65;13.07;;;;;;;14.21;60.85;101780.88;4828187;29;117870;-68
2023/02/17 03:20:24;;;;;;;18.00;12.52;;;;;;;14.23;60.80;101782.63;4828423;29;123730;-68
2023/02/17 03:22:51;;;;;;;17.85;12.88;;;;;;;14.23;60.75;101777.28;4811770;29;123406;-68
2023/02/17 03:25:18;;;;;;;17.58;12.27;;;;;;;14.21;60.63;101778.22;4812740;29;118603;-68
2023/02/17 03:27:46;;;;;;;18.98;12.90;;;;;;;14.21;60.74;101788.88;4816121;29;120326;-67
2023/02/17 03:30:14;;;;;;;18.85;13.15;;;;;;;14.21;60.70;101770.22;4829649;29;122367;-68
2023/02/17 03:32:41;;;;;;;17.85;12.45;;;;;;;14.21;60.68;101772.88;4818153;29;123931;-68
2023/02/17 03:35:08;;;;;;;16.65;11.85;;;;;;;14.24;60.54;101779.00;4809332;29;120496;-68
2023/02/17 03:37:36;;;;;;;18.25;12.10;;;;;;;14.23;60.49;101777.28;4817437;29;120300;-68
2023/02/17 03:40:05;;;;;;;17.08;11.63;;;;;;;14.21;60.47;101775.56;4812530;29;124079;-68
2023/02/17 03:42:32;;;;;;;17.38;12.23;;;;;;;14.20;60.52;101781.84;4815151;29;123438;-68
2023/02/17 03:44:59;;;;;;;18.08;12.40;;;;;;;14.20;60.42;101795.16;4828801;29;119828;-68
2023/02/17 03:47:27;;;;;;;18.17;12.85;;;;;;;14.19;60.36;101780.09;4815972;29;118941;-67
2023/02/17 03:49:54;;;;;;;19.25;12.80;;;;;;;14.18;60.50;101781.03;4814050;29;124071;-68
2023/02/17 03:52:21;;;;;;;17.30;11.65;;;;;;;14.18;60.50;101775.72;4814430;29;124155;-68
2023/02/17 03:54:48;;;;;;;16.92;11.60;;;;;;;14.19;60.33;101772.09;4815294;29;119644;-69
2023/02/17 03:57:15;;;;;;;16.27;11.15;;;;;;;14.18;60.27;101762.38;4823949;29;119292;-68
2023/02/17 03:59:43;;;;;;;17.27;11.07;;;;;;;14.19;60.24;101766.75;4826221;29;125235;-68
2023/02/17 04:02:10;;;;;;;14.63;10.05;;;;;;;14.20;60.43;101765.84;4814923;29;123727;-69
2023/02/17 04:04:38;;;;;;;15.27;10.63;;;;;;;14.20;60.21;101757.84;4814861;29;119391;-68
2023/02/17 04:07:05;;;;;;;12.90;9.10;;;;;;;14.19;60.42;101756.09;4814309;29;119035;-69
2023/02/17 04:09:32;;;;;;;13.85;9.20;;;;;;;14.20;60.21;101767.63;4817886;29;124009;-68
2023/02/17 04:11:59;;;;;;;11.70;8.00;;;;;;;14.19;60.38;101766.75;4814922;29;124168;-68
2023/02/17 04:14:26;;;;;;;11.68;7.72;;;;;;;14.19;60.29;101766.75;4815529;29;119589;-68
2023/02/17 04:16:54;;;;;;;10.10;7.43;;;;;;;14.20;60.25;101763.19;4813284;29;118896;-68
2023/02/17 04:19:21;;;;;;;9.20;6.80;;;;;;;14.21;60.24;101770.22;4817224;29;124588;-68
2023/02/17 04:21:48;;;;;;;10.32;6.65;;;;;;;14.21;60.33;101756.91;4815520;29;124005;-68
2023/02/17 04:24:15;;;;;;;11.30;6.60;;;;;;;14.23;60.55;101753.31;4813996;29;120300;-68
2023/02/17 04:26:42;;;;;;;7.95;6.35;;;;;;;14.23;60.21;101755.97;4809847;29;120477;-69
2023/02/17 04:29:10;;;;;;;11.13;6.60;;;;;;;14.21;60.33;101748.91;4814588;29;124194;-69
2023/02/17 04:31:37;;;;;;;8.52;6.22;;;;;;;14.20;60.29;101757.84;4812319;29;122942;-68
2023/02/17 04:34:05;;;;;;;8.60;5.88;;;;;;;14.18;60.16;101749.06;4829865;29;119369;-69
2023/02/17 04:36:32;;;;;;;8.85;6.03;;;;;;;14.19;60.24;101758.78;4814966;29;118939;-69
2023/02/17 04:38:59;;;;;;;9.05;6.65;;;;;;;14.17;60.15;101763.31;4814136;29;124002;-68
2023/02/17 04:41:26;;;;;;;8.40;6.07;;;;;;;14.15;60.23;101765.19;4814013;29;123903;-69
2023/02/17 04:43:53;;;;;;;9.32;6.68;;;;;;;14.14;60.40;101765.25;4812834;29;120228;-69
2023/02/17 04:46:20;;;;;;;9.55;6.32;;;;;;;14.14;60.05;101758.09;4813953;29;119445;-69
2023/02/17 04:48:48;;;;;;;8.90;6.38;;;;;;;14.13;60.55;101761.72;4816627;29;124320;-68
2023/02/17 04:51:15;;;;;;;10.05;6.60;;;;;;;14.12;60.22;101762.66;4815765;29;124408;-68
2023/02/17 04:53:42;;;;;;;9.02;5.88;;;;;;;14.12;60.38;101757.31;4814345;29;120071;-68
2023/02/17 04:56:09;;;;;;;8.93;5.82;;;;;;;14.13;60.42;101745.75;4810201;29;119058;-69
2023/02/17 04:58:37;;;;;;;9.52;5.97;;;;;;;14.13;60.39;101751.06;4827841;29;124438;-69
2023/02/17 05:01:04;;;;;;;10.25;6.20;;;;;;;14.14;60.33;101742.13;4813182;29;123795;-69
2023/02/17 05:03:32;;;;;;;7.95;6.10;;;;;;;14.14;60.43;101747.44;4814107;29;119083;-68
2023/02/17 05:05:59;;;;;;;11.82;6.45;;;;;;;14.14;60.42;101742.13;4816724;29;119336;-68
2023/02/17 05:08:27;;;;;;;9.90;6.30;;;;;;;14.14;60.42;101744.78;4814740;29;124121;-69
2023/02/17 05:10:54;;;;;;;10.40;6.60;;;;;;;14.14;60.47;101742.13;4815429;29;126933;-68
2023/02/17 05:13:21;;;;;;;10.07;6.43;;;;;;;14.14;60.35;101731.47;4814592;29;119340;-68
2023/02/17 05:15:48;;;;;;;11.98;6.65;;;;;;;14.14;60.56;101726.13;4815150;29;119965;-68
2023/02/17 05:18:16;;;;;;;13.65;6.50;;;;;;;14.14;60.56;101742.13;4827002;29;123877;-68
2023/02/17 05:20:43;;;;;;;7.93;5.95;;;;;;;14.16;60.50;101742.91;4815743;29;123662;-68
2023/02/17 05:23:10;;;;;;;8.82;6.00;;;;;;;14.15;60.49;101733.22;4816356;29;119698;-68
2023/02/17 05:25:39;;;;;;;8.88;5.80;;;;;;;14.16;60.33;101744.72;4827136;29;119244;-69
2023/02/17 05:28:07;;;;;;;7.55;5.68;;;;;;;14.15;60.56;101743.88;4811837;29;124115;-68
2023/02/17 05:30:34;;;;;;;9.40;5.90;;;;;;;14.15;60.53;101727.88;4828250;29;123752;-69
2023/02/17 05:33:01;;;;;;;7.93;5.78;;;;;;;14.16;60.66;101734.91;4817894;29;119160;-69
2023/02/17 05:35:28;;;;;;;7.75;5.50;;;;;;;14.16;60.55;101755.38;4807195;29;119392;-68
2023/02/17 05:37:55;;;;;;;7.80;5.45;;;;;;;14.15;60.62;101754.53;4812339;29;124478;-67
2023/02/17 05:40:22;;;;;;;8.68;5.20;;;;;;;14.15;60.60;101738.53;4814649;29;123739;-68
2023/02/17 05:42:50;;;;;;;6.82;5.07;;;;;;;14.15;60.68;101741.19;4814093;29;119329;-68
2023/02/17 05:45:17;;;;;;;8.43;5.30;;;;;;;14.15;60.69;101748.34;4812893;29;120213;-67
2023/02/17 05:47:44;;;;;;;8.23;5.07;;;;;;;14.13;60.61;101740.41;4814352;29;124052;-68
2023/02/17 05:50:11;;;;;;;6.47;4.75;;;;;;;14.12;60.79;101746.66;4810268;29;124043;-68
2023/02/17 05:52:39;;;;;;;6.18;4.75;;;;;;;14.12;60.66;101749.31;4814509;29;119130;-68
2023/02/17 05:55:06;;;;;;;8.85;4.93;;;;;;;14.12;60.79;101759.97;4815875;29;119012;-68
2023/02/17 05:57:33;;;;;;;6.75;5.00;;;;;;;14.11;60.64;101758.28;4813030;29;124053;-67
2023/02/17 06:00:01;;;;;;;7.30;5.47;;;;;;;14.11;60.66;101763.59;4814180;29;124654;-68
2023/02/17 06:02:38;;;;;;;6.72;5.00;;;;;;;14.10;60.82;101761.00;4815959;29;120919;-68
2023/02/17 06:05:05;;;;;;;7.13;5.47;;;;;;;14.09;60.98;101760.13;4809852;29;119959;-68
2023/02/17 06:07:33;;;;;;;11.02;4.93;;;;;;;14.07;60.84;101746.03;4815482;29;124049;-68
2023/02/17 06:10:00;;;;;;;9.23;5.25;;;;;;;14.08;60.97;101746.88;4814790;29;123851;-69
2023/02/17 06:12:27;;;;;;;8.30;5.40;;;;;;;14.07;60.89;101740.69;4815048;29;119573;-69
2023/02/17 06:14:55;;;;;;;10.20;5.38;;;;;;;14.05;60.89;101734.53;4815657;29;119541;-69
2023/02/17 06:17:22;;;;;;;7.75;5.57;;;;;;;14.06;61.06;101727.44;4812486;29;124208;-68
2023/02/17 06:19:49;;;;;;;8.68;5.47;;;;;;;14.03;61.28;101723.09;4811244;29;123976;-68
2023/02/17 06:22:16;;;;;;;9.15;6.13;;;;;;;14.02;61.04;101732.03;4813209;29;119447;-68
2023/02/17 06:24:44;;;;;;;9.90;6.45;;;;;;;14.01;61.33;101735.63;4810367;29;119289;-68
2023/02/17 06:27:12;;;;;;;10.98;6.45;;;;;;;14.00;61.12;101733.91;4811253;29;124228;-68
2023/02/17 06:29:39;;;;;;;9.48;6.22;;;;;;;14.01;61.38;101740.94;4810432;29;125506;-68
2023/02/17 06:32:06;;;;;;;11.55;6.75;;;;;;;14.00;61.33;101736.56;4815349;29;119767;-69
2023/02/17 06:34:33;;;;;;;11.27;6.55;;;;;;;13.98;61.34;101730.47;4816375;29;119736;-70
2023/02/17 06:37:01;;;;;;;11.32;6.90;;;;;;;13.98;61.15;101725.13;4825283;29;124303;-69
2023/02/17 06:39:28;;;;;;;10.48;7.13;;;;;;;13.99;61.53;101732.16;4815448;29;124088;-70
2023/02/17 06:41:55;;;;;;;9.18;6.68;;;;;;;14.00;61.49;101725.91;4808536;29;118712;-70
2023/02/17 06:44:22;;;;;;;11.55;6.75;;;;;;;13.98;61.72;101730.47;4821494;29;118033;-70
2023/02/17 06:46:50;;;;;;;11.32;7.00;;;;;;;14.00;61.67;101752.56;4816933;29;124554;-70
2023/02/17 06:49:17;;;;;;;12.20;7.07;;;;;;;14.01;61.56;101735.63;4814519;29;124528;-70
2023/02/17 06:51:44;;;;;;;10.63;7.22;;;;;;;14.03;61.73;101741.75;4816715;29;120266;-70
2023/02/17 06:54:11;;;;;;;12.60;7.57;;;;;;;14.03;61.80;101747.06;4807549;29;120169;-69
2023/02/17 06:56:39;;;;;;;11.35;7.07;;;;;;;14.04;61.76;101743.50;4806785;29;123188;-71
2023/02/17 06:59:06;;;;;;;10.10;6.32;;;;;;;14.05;61.69;101742.53;4809760;29;124044;-70
2023/02/17 07:01:34;;;;;;;11.73;7.28;;;;;;;14.06;61.66;101738.09;4824142;29;119423;-70
2023/02/17 07:04:02;;;;;;;12.45;8.20;;;;;;;14.07;61.78;101735.38;4811952;29;119729;-69
2023/02/17 07:06:29;;;;;;;12.98;8.07;;;;;;;14.08;61.76;101742.41;4816017;29;124676;-70
2023/02/17 07:08:56;;;;;;;11.52;7.50;;;;;;;14.09;61.67;101744.16;4814267;29;123783;-70
2023/02/17 07:11:25;;;;;;;13.05;7.93;;;;;;;14.09;61.85;101744.16;4808055;29;119690;-70
2023/02/17 07:13:52;;;;;;;15.60;7.80;;;;;;;14.11;61.74;101738.72;4803645;29;119103;-70
2023/02/17 07:16:19;;;;;;;11.88;8.18;;;;;;;14.11;61.53;101731.63;4813188;29;123137;-70
2023/02/17 07:18:47;;;;;;;15.18;8.02;;;;;;;14.13;61.81;101751.06;4813542;29;124270;-69
2023/02/17 07:21:14;;;;;;;13.55;8.15;;;;;;;14.14;61.71;101736.78;4800662;29;119507;-70
2023/02/17 07:23:41;;;;;;;11.75;7.65;;;;;;;14.16;61.73;101740.25;4801915;29;119514;-70
2023/02/17 07:26:10;;;;;;;17.48;8.50;;;;;;;14.17;61.74;101742.00;4809751;29;124113;-70
2023/02/17 07:28:39;;;;;;;13.02;8.20;;;;;;;14.18;61.81;101735.75;4827197;29;124766;-69
2023/02/17 07:31:12;;;;;;;12.50;8.48;;;;;;;14.20;61.92;101741.88;4818025;29;119321;-69
2023/02/17 07:33:41;;;;;;;16.20;8.90;;;;;;;14.21;61.94;101722.25;4815438;29;118960;-70
2023/02/17 07:36:11;;;;;;;14.10;8.60;;;;;;;14.23;61.85;101734.66;4809413;29;124567;-69
2023/02/17 07:38:39;;;;;;;13.63;8.30;;;;;;;14.24;61.62;101726.59;4812011;29;124090;-69
2023/02/17 07:41:13;;;;;;;15.30;8.45;;;;;;;14.26;61.70;101729.16;4813459;29;121317;-70
2023/02/17 07:43:40;;;;;;;13.38;7.78;;;;;;;14.28;61.71;101722.84;4828932;29;119554;-70
2023/02/17 07:46:09;;;;;;;13.57;8.73;;;;;;;14.29;61.71;101723.72;4818081;29;123360;-70
2023/02/17 07:48:37;;;;;;;12.93;8.27;;;;;;;14.31;61.69;101722.69;4817819;29;123311;-70
2023/02/17 07:51:10;;;;;;;14.00;7.88;;;;;;;14.34;61.65;101711.91;4815971;29;120097;-70
2023/02/17 07:53:37;;;;;;;13.13;8.63;;;;;;;14.36;61.67;101719.84;4814685;29;118432;-71
2023/02/17 07:56:08;;;;;;;12.40;8.20;;;;;;;14.36;61.65;101709.16;4829273;29;124239;-69
2023/02/17 07:58:37;;;;;;;15.02;8.40;;;;;;;14.37;61.59;101708.22;4831883;29;123074;-69
2023/02/17 08:01:09;;;;;;;11.80;7.47;;;;;;;14.38;61.73;101712.63;4805755;29;119541;-69
2023/02/17 08:03:37;;;;;;;11.35;7.50;;;;;;;14.41;61.70;101707.16;4801830;29;118897;-69
2023/02/17 08:06:10;;;;;;;17.00;8.55;;;;;;;14.43;61.51;101702.63;4831086;29;122952;-68
2023/02/17 08:14:12;;;;;;;10.90;7.68;;;;;;;14.48;61.55;101713.91;4832295;29;118581;-69
2023/02/17 08:16:39;;;;;;;14.70;8.63;;;;;;;14.49;61.57;101715.66;4817006;29;123903;-69
2023/02/17 08:19:07;;;;;;;12.55;8.68;;;;;;;14.53;61.50;101724.38;4846321;29;123647;-69
2023/02/17 08:21:35;;;;;;;15.20;8.55;;;;;;;14.54;61.45;101708.31;4826953;29;119342;-69
2023/02/17 08:24:02;;;;;;;12.10;7.95;;;;;;;14.57;61.51;101708.16;4831391;29;118989;-69
2023/02/17 08:26:29;;;;;;;14.07;8.38;;;;;;;14.61;61.54;101703.56;4821867;29;124839;-71
2023/02/17 08:28:57;;;;;;;12.13;8.00;;;;;;;14.63;61.52;101716.81;4834410;29;124529;-70
2023/02/17 08:31:31;;;;;;;11.15;8.13;;;;;;;14.67;61.40;101718.41;4828110;29;120331;-70
2023/02/17 08:34:05;;;;;;;10.57;7.67;;;;;;;14.70;61.51;101719.13;4817423;29;119996;-69
2023/02/17 08:36:32;;;;;;;13.73;8.30;;;;;;;14.74;61.35;101717.16;4828278;29;124581;-69
2023/02/17 08:39:00;;;;;;;12.35;7.43;;;;;;;14.77;61.33;101725.88;4810656;29;124005;-70
2023/02/17 08:41:31;;;;;;;12.80;8.07;;;;;;;14.80;61.36;101735.53;4810081;29;118033;-69
2023/02/17 08:44:01;;;;;;;9.70;7.60;;;;;;;14.83;61.42;101735.41;4813386;29;119781;-70
2023/02/17 08:46:29;;;;;;;13.00;8.35;;;;;;;14.86;61.32;101721.91;4809426;29;124885;-69
2023/02/17 08:48:56;;;;;;;10.13;7.97;;;;;;;14.89;61.25;101729.75;4832256;29;123799;-70
2023/02/17 08:51:25;;;;;;;11.85;8.00;;;;;;;14.93;61.47;101731.31;4811586;29;119360;-70
2023/02/17 08:53:54;;;;;;;12.55;7.05;;;;;;;14.97;61.18;101732.03;4800954;29;119319;-70
2023/02/17 08:56:23;;;;;;;11.80;7.35;;;;;;;15.02;61.16;101746.03;4796504;29;124340;-70
2023/02/17 08:58:50;;;;;;;8.90;6.82;;;;;;;15.05;61.04;101745.88;4797731;29;124223;-71
2023/02/17 09:01:18;;;;;;;11.77;7.70;;;;;;;15.07;61.04;101732.44;4799016;29;120314;-71
2023/02/17 09:03:48;;;;;;;10.75;7.13;;;;;;;15.09;61.07;101741.25;4798609;29;118903;-71
2023/02/17 09:06:15;;;;;;;8.68;6.93;;;;;;;15.11;61.02;101745.56;4806722;29;123839;-71
2023/02/17 09:08:44;;;;;;;10.40;7.13;;;;;;;15.15;61.00;101756.97;4811956;29;125296;-71
2023/02/17 09:11:14;;;;;;;9.27;6.57;;;;;;;15.17;60.75;101755.06;4805625;29;119218;-71
2023/02/17 09:13:43;;;;;;;11.40;7.10;;;;;;;15.20;60.92;101760.28;4806398;29;118832;-70
2023/02/17 09:16:10;;;;;;;10.10;7.13;;;;;;;15.22;60.87;101769.06;4822219;29;123537;-70
2023/02/17 09:18:38;;;;;;;9.77;7.18;;;;;;;15.24;60.63;101776.97;4820416;29;123975;-71
2023/02/17 09:21:07;;;;;;;10.75;7.68;;;;;;;15.22;60.63;101769.06;4804366;29;120595;-71
2023/02/17 09:23:35;;;;;;;10.00;7.70;;;;;;;15.23;60.76;101781.44;4812350;29;120564;-70
2023/02/17 09:26:04;;;;;;;11.27;7.22;;;;;;;15.24;60.71;101783.19;4821484;29;124443;-68
2023/02/17 09:28:33;;;;;;;9.55;7.07;;;;;;;15.28;60.70;101784.75;4819254;29;124618;-68
2023/02/17 09:31:23;;;;;;;13.10;7.63;;;;;;;15.28;60.65;101790.09;4817812;29;118339;-68
2023/02/17 09:33:50;;;;;;;10.10;7.55;;;;;;;15.30;60.77;101793.56;4801353;29;119747;-69
2023/02/17 09:36:21;;;;;;;11.43;7.80;;;;;;;15.32;60.74;101801.50;4823223;29;124395;-69
2023/02/17 09:38:49;;;;;;;12.20;7.60;;;;;;;15.34;60.53;101787.13;4807934;29;123912;-70
2023/02/17 09:41:37;;;;;;;9.65;7.55;;;;;;;15.36;60.60;101787.91;4815710;29;118199;-68
2023/02/17 09:44:06;;;;;;;11.68;7.75;;;;;;;15.40;60.69;101793.09;4807172;29;118870;-68
2023/02/17 09:46:43;;;;;;;11.02;8.00;;;;;;;15.42;60.43;101788.53;4818242;29;123350;-68
2023/02/17 09:49:51;;;;;;;11.05;8.23;;;;;;;15.45;60.25;101796.41;4801815;29;124619;-68
2023/02/17 09:52:24;;;;;;;11.52;8.50;;;;;;;15.46;60.24;101792.78;4807648;29;118307;-70
2023/02/17 09:54:57;;;;;;;11.00;8.65;;;;;;;15.49;60.39;101792.63;4797859;29;119947;-69
2023/02/17 09:57:29;;;;;;;11.50;9.10;;;;;;;15.51;60.12;101806.78;4807256;29;124170;-69
2023/02/17 10:00:11;;;;;;;10.82;8.75;;;;;;;15.53;59.89;101800.41;4802310;29;124041;-69
2023/02/17 10:02:47;;;;;;;10.90;8.30;;;;;;;15.54;60.02;101802.16;4811098;29;119893;-68
2023/02/17 10:05:19;;;;;;;10.65;8.38;;;;;;;15.57;60.07;101798.44;4799442;29;119033;-69
2023/02/17 10:07:53;;;;;;;12.43;8.70;;;;;;;15.59;59.89;101804.56;4815526;29;122964;-69
2023/02/17 10:10:30;;;;;;;9.98;7.03;;;;;;;15.62;59.83;101799.09;4801588;29;125523;-69
2023/02/17 10:13:01;;;;;;;9.40;7.13;;;;;;;15.65;59.78;101798.94;4812393;29;122129;-69
2023/02/17 10:15:34;;;;;;;8.10;6.30;;;;;;;15.69;59.83;101789.81;4799019;29;120169;-68
2023/02/17 10:18:20;;;;;;;9.13;7.07;;;;;;;15.73;59.73;101786.06;4801491;29;123888;-69
2023/02/17 10:21:00;;;;;;;8.65;6.63;;;;;;;15.76;59.79;101780.59;4799396;29;124043;-70
2023/02/17 10:23:28;;;;;;;9.82;7.63;;;;;;;15.81;59.60;101787.50;4799230;29;119374;-70
2023/02/17 10:26:18;;;;;;;8.88;7.20;;;;;;;15.84;59.58;101782.84;4813744;29;118753;-70
2023/02/17 10:28:49;;;;;;;10.43;7.25;;;;;;;15.88;59.29;101791.53;4799942;29;124363;-70
2023/02/17 10:31:43;;;;;;;8.30;7.28;;;;;;;15.90;59.32;101784.34;4799088;29;123886;-69
2023/02/17 10:34:29;;;;;;;10.50;7.85;;;;;;;15.94;59.21;101785.91;4803679;29;119917;-69
2023/02/17 10:37:02;;;;;;;8.27;7.03;;;;;;;15.95;59.06;101761.78;4812160;29;119838;-68
2023/02/17 10:39:45;;;;;;;9.35;7.85;;;;;;;15.99;58.95;101774.97;4813879;29;124132;-69
2023/02/17 10:42:29;;;;;;;9.02;7.68;;;;;;;16.03;58.78;101782.75;4824356;29;124045;-70
2023/02/17 10:45:05;;;;;;;8.40;7.38;;;;;;;16.08;58.82;101786.00;4819991;29;119224;-70
2023/02/17 10:47:35;;;;;;;9.57;7.68;;;;;;;16.12;58.61;101787.59;4812812;29;119661;-70
2023/02/17 10:50:25;;;;;;;9.25;7.45;;;;;;;16.17;58.59;101789.16;4840799;29;122981;-70
2023/02/17 10:52:55;;;;;;;10.10;7.95;;;;;;;16.18;58.46;101798.91;4815611;29;124668;-70
2023/02/17 10:55:38;;;;;;;11.15;8.30;;;;;;;16.20;58.21;101799.66;4820946;29;119148;-70
2023/02/17 10:58:23;;;;;;;8.50;7.60;;;;;;;16.19;58.00;101803.31;4801200;29;118811;-69
2023/02/17 11:00:55;;;;;;;9.55;8.00;;;;;;;16.19;58.07;101814.00;4812992;29;124574;-69
2023/02/17 11:03:26;;;;;;;9.00;7.72;;;;;;;16.17;58.13;101815.91;4823658;29;125133;-69
2023/02/17 11:06:05;;;;;;;9.65;7.57;;;;;;;16.14;57.90;101807.09;4800507;29;120308;-69
2023/02/17 11:09:04;;;;;;;10.75;8.25;;;;;;;16.14;57.80;101801.75;4804243;29;119773;-70
2023/02/17 11:11:34;;;;;;;10.30;8.32;;;;;;;16.14;57.99;101796.41;4802860;29;124139;-69
2023/02/17 11:14:19;;;;;;;10.75;7.63;;;;;;;16.15;57.99;101798.13;4802530;29;123701;-69
2023/02/17 11:16:58;;;;;;;9.48;8.25;;;;;;;16.15;57.96;101808.81;4798936;29;119406;-69
2023/02/17 11:19:34;;;;;;;10.57;8.77;;;;;;;16.16;57.82;101798.97;4805577;29;118891;-69
2023/02/17 11:22:04;;;;;;;11.48;8.90;;;;;;;16.17;57.97;101794.50;4805670;29;124194;-69
2023/02/17 11:24:33;;;;;;;10.70;9.18;;;;;;;16.17;57.96;101768.63;4800842;29;123971;-69
2023/02/17 11:27:07;;;;;;;11.25;9.45;;;;;;;16.18;57.75;101770.38;4798304;29;119328;-70
2023/02/17 11:29:34;;;;;;;12.32;9.93;;;;;;;16.17;57.97;101767.78;4815412;29;119123;-70